Kahuta Weather



Kahuta's Current Weather

Temprature 16.22o clear sky

clear sky

Rain: 0 %

Min Temprature15o
Max Temprature17.22o
Humidity82
Wind Speed2.6 m/h
Sun Rise05:43:11
Sun Set18:32:20
Current Time: 09-Apr-2020 02:36:43
Lat/Lon: 33.59, 73.39




Kahuta's Geo Location



Kahuta's Weather Forecast

Time Overall Temp Min Temp Max Temp Humidity Wind Speed Rain
09-Apr-2020 (Thu)
05:00:00 clear sky 15.320 15.320 15.840 44 2.19 m/h 0 %
08:00:00 broken clouds 19.730 19.730 20.120 38 1.59 m/h 0 %
11:00:00 broken clouds 25.120 25.120 25.380 27 1.32 m/h 0 %
14:00:00 overcast clouds 26.770 26.770 26.900 23 2.03 m/h 0 %
17:00:00 overcast clouds 26.190 26.190 26.190 29 2.61 m/h 0 %
20:00:00 light rain 19.970 19.970 19.970 42 2.62 m/h 61 %
23:00:00 light rain 17.340 17.340 17.340 51 4.94 m/h 89 %
10-Apr-2020 (Fri)
02:00:00 light rain 16.090 16.090 16.090 53 3.68 m/h 52 %
05:00:00 broken clouds 16.080 16.080 16.080 52 3.41 m/h 0 %
08:00:00 clear sky 20.480 20.480 20.480 45 2.71 m/h 0 %
11:00:00 clear sky 26.890 26.890 26.890 29 2.76 m/h 0 %
14:00:00 broken clouds 29.000 29.000 29.000 23 1.81 m/h 0 %
17:00:00 scattered clouds 28.100 28.100 28.100 27 1.95 m/h 0 %
20:00:00 clear sky 22.160 22.160 22.160 41 2.47 m/h 0 %
23:00:00 clear sky 20.370 20.370 20.370 41 2.92 m/h 0 %
11-Apr-2020 (Sat)
02:00:00 broken clouds 19.310 19.310 19.310 40 2.9 m/h 0 %
05:00:00 broken clouds 18.430 18.430 18.430 37 2.83 m/h 0 %
08:00:00 scattered clouds 22.840 22.840 22.840 35 2.31 m/h 0 %
11:00:00 scattered clouds 28.720 28.720 28.720 24 2.23 m/h 0 %
14:00:00 broken clouds 31.080 31.080 31.080 17 0.44 m/h 0 %
17:00:00 broken clouds 29.540 29.540 29.540 24 2.32 m/h 0 %
20:00:00 broken clouds 23.030 23.030 23.030 33 2.72 m/h 0 %
23:00:00 broken clouds 21.530 21.530 21.530 35 2.43 m/h 0 %
12-Apr-2020 (Sun)
02:00:00 overcast clouds 20.410 20.410 20.410 37 2.26 m/h 0 %
05:00:00 broken clouds 19.200 19.200 19.200 35 2.73 m/h 0 %
08:00:00 clear sky 23.980 23.980 23.980 32 2.18 m/h 0 %
11:00:00 clear sky 29.970 29.970 29.970 22 2.24 m/h 0 %
14:00:00 clear sky 32.110 32.110 32.110 19 2.05 m/h 0 %
17:00:00 few clouds 30.870 30.870 30.870 24 2.32 m/h 0 %
20:00:00 overcast clouds 24.520 24.520 24.520 32 2.14 m/h 0 %
23:00:00 broken clouds 22.930 22.930 22.930 35 2.43 m/h 0 %
13-Apr-2020 (Mon)
02:00:00 overcast clouds 21.470 21.470 21.470 37 2.56 m/h 0 %
05:00:00 broken clouds 20.460 20.460 20.460 36 2.39 m/h 0 %
08:00:00 overcast clouds 25.060 25.060 25.060 32 2.32 m/h 0 %
11:00:00 overcast clouds 31.730 31.730 31.730 21 0.85 m/h 0 %
14:00:00 broken clouds 33.370 33.370 33.370 16 2.48 m/h 0 %
17:00:00 scattered clouds 32.300 32.300 32.300 20 1.82 m/h 0 %
20:00:00 scattered clouds 25.890 25.890 25.890 25 1.63 m/h 0 %
23:00:00 scattered clouds 24.040 24.040 24.040 29 2.92 m/h 0 %
14-Apr-2020 (Tue)
02:00:00 scattered clouds 22.690 22.690 22.690 33 2.91 m/h 0 %

Famous Cities (61)